Terminal Aerodrome Forecast
Issued by NWS Boise, ID

Home | Current Version | Previous Version | Text Only | Print | Product List | Glossary On
Versions: 1 2 3 4 5 6 7 8 9 10 11 12 13 14 15 16 17 18 19 20 21 22 23 24 25 26 27 28 29 30 31
000
FTUS45 KBOI 210522
TAFBOI
TAF
KBOI 210522Z 2106/2206 27010G20KT P6SM FEW100 BKN150
     FM210900 31012G22KT P6SM -RA OVC040
     FM211600 30015G25KT P6SM VCSH BKN060
     FM212000 31010KT P6SM SCT060
     FM220000 31006KT P6SM FEW100=

USA.gov is the U.S. government's official web portal to all federal, state and local government web resources and services.